sensor_id;sensor_type;location;lat;lon;timestamp;P1;durP1;ratioP1;P2;durP2;ratioP2
19285;SDS011;9776;50.798;6.430;2024-01-27T00:02:08;8.95;;;2.50;;
19285;SDS011;9776;50.798;6.430;2024-01-27T00:04:35;8.75;;;2.22;;
19285;SDS011;9776;50.798;6.430;2024-01-27T00:07:02;8.07;;;2.22;;
19285;SDS011;9776;50.798;6.430;2024-01-27T00:09:30;8.27;;;2.25;;
19285;SDS011;9776;50.798;6.430;2024-01-27T00:11:56;9.05;;;2.13;;
19285;SDS011;9776;50.798;6.430;2024-01-27T00:14:23;9.70;;;2.17;;
19285;SDS011;9776;50.798;6.430;2024-01-27T00:16:50;9.88;;;2.15;;
19285;SDS011;9776;50.798;6.430;2024-01-27T00:19:16;7.28;;;2.17;;
19285;SDS011;9776;50.798;6.430;2024-01-27T00:21:43;8.50;;;2.00;;
19285;SDS011;9776;50.798;6.430;2024-01-27T00:24:10;9.13;;;2.00;;
19285;SDS011;9776;50.798;6.430;2024-01-27T00:26:38;9.35;;;2.15;;
19285;SDS011;9776;50.798;6.430;2024-01-27T00:29:05;7.13;;;2.10;;
19285;SDS011;9776;50.798;6.430;2024-01-27T00:31:31;13.40;;;4.60;;
19285;SDS011;9776;50.798;6.430;2024-01-27T00:33:58;7.45;;;2.08;;
19285;SDS011;9776;50.798;6.430;2024-01-27T00:36:25;11.25;;;2.05;;
19285;SDS011;9776;50.798;6.430;2024-01-27T00:38:52;7.70;;;2.00;;
19285;SDS011;9776;50.798;6.430;2024-01-27T00:41:19;3.83;;;1.70;;
19285;SDS011;9776;50.798;6.430;2024-01-27T00:43:47;9.68;;;1.80;;
19285;SDS011;9776;50.798;6.430;2024-01-27T00:46:14;8.15;;;2.17;;
19285;SDS011;9776;50.798;6.430;2024-01-27T00:48:40;7.70;;;1.60;;
19285;SDS011;9776;50.798;6.430;2024-01-27T00:51:07;8.25;;;1.90;;
19285;SDS011;9776;50.798;6.430;2024-01-27T00:53:34;6.03;;;2.10;;
19285;SDS011;9776;50.798;6.430;2024-01-27T00:56:01;9.63;;;2.05;;
19285;SDS011;9776;50.798;6.430;2024-01-27T00:58:28;11.68;;;2.20;;
19285;SDS011;9776;50.798;6.430;2024-01-27T01:00:56;8.85;;;2.13;;
19285;SDS011;9776;50.798;6.430;2024-01-27T01:03:23;10.73;;;1.90;;
19285;SDS011;9776;50.798;6.430;2024-01-27T01:05:50;4.80;;;1.70;;
19285;SDS011;9776;50.798;6.430;2024-01-27T01:08:16;9.93;;;2.03;;
19285;SDS011;9776;50.798;6.430;2024-01-27T01:10:43;7.50;;;2.13;;
19285;SDS011;9776;50.798;6.430;2024-01-27T01:13:10;8.13;;;2.13;;
19285;SDS011;9776;50.798;6.430;2024-01-27T01:15:37;4.72;;;1.98;;
19285;SDS011;9776;50.798;6.430;2024-01-27T01:18:06;6.53;;;1.88;;
19285;SDS011;9776;50.798;6.430;2024-01-27T01:20:32;4.72;;;1.88;;
19285;SDS011;9776;50.798;6.430;2024-01-27T01:22:59;9.35;;;1.70;;
19285;SDS011;9776;50.798;6.430;2024-01-27T01:25:26;6.38;;;1.70;;
19285;SDS011;9776;50.798;6.430;2024-01-27T01:27:51;6.97;;;1.75;;
19285;SDS011;9776;50.798;6.430;2024-01-27T01:30:18;9.02;;;1.83;;
19285;SDS011;9776;50.798;6.430;2024-01-27T01:32:45;5.97;;;1.52;;
19285;SDS011;9776;50.798;6.430;2024-01-27T01:35:13;6.45;;;1.50;;
19285;SDS011;9776;50.798;6.430;2024-01-27T01:37:40;7.20;;;1.80;;
19285;SDS011;9776;50.798;6.430;2024-01-27T01:40:08;8.82;;;2.35;;
19285;SDS011;9776;50.798;6.430;2024-01-27T01:42:35;5.65;;;1.63;;
19285;SDS011;9776;50.798;6.430;2024-01-27T01:45:01;9.77;;;1.55;;
19285;SDS011;9776;50.798;6.430;2024-01-27T01:47:28;6.00;;;1.38;;
19285;SDS011;9776;50.798;6.430;2024-01-27T01:49:55;5.25;;;1.63;;
19285;SDS011;9776;50.798;6.430;2024-01-27T01:52:23;5.00;;;1.25;;
19285;SDS011;9776;50.798;6.430;2024-01-27T01:54:50;4.53;;;1.70;;
19285;SDS011;9776;50.798;6.430;2024-01-27T01:57:17;3.63;;;1.45;;
19285;SDS011;9776;50.798;6.430;2024-01-27T01:59:44;5.47;;;1.70;;
19285;SDS011;9776;50.798;6.430;2024-01-27T02:02:12;6.35;;;1.70;;
19285;SDS011;9776;50.798;6.430;2024-01-27T02:04:40;4.32;;;1.83;;
19285;SDS011;9776;50.798;6.430;2024-01-27T02:07:07;6.22;;;1.45;;
19285;SDS011;9776;50.798;6.430;2024-01-27T02:09:35;4.22;;;1.60;;
19285;SDS011;9776;50.798;6.430;2024-01-27T02:12:02;8.93;;;2.20;;
19285;SDS011;9776;50.798;6.430;2024-01-27T02:14:29;7.97;;;1.60;;
19285;SDS011;9776;50.798;6.430;2024-01-27T02:16:56;10.32;;;1.60;;
19285;SDS011;9776;50.798;6.430;2024-01-27T02:19:23;5.78;;;1.55;;
19285;SDS011;9776;50.798;6.430;2024-01-27T02:21:50;6.93;;;1.50;;
19285;SDS011;9776;50.798;6.430;2024-01-27T02:24:18;6.38;;;1.65;;
19285;SDS011;9776;50.798;6.430;2024-01-27T02:26:45;3.78;;;1.45;;
19285;SDS011;9776;50.798;6.430;2024-01-27T02:29:11;9.77;;;1.92;;
19285;SDS011;9776;50.798;6.430;2024-01-27T02:31:38;5.88;;;1.60;;
19285;SDS011;9776;50.798;6.430;2024-01-27T02:34:05;12.00;;;1.92;;
19285;SDS011;9776;50.798;6.430;2024-01-27T02:36:31;7.10;;;1.50;;
19285;SDS011;9776;50.798;6.430;2024-01-27T02:38:58;7.90;;;1.60;;
19285;SDS011;9776;50.798;6.430;2024-01-27T02:41:26;10.75;;;2.17;;
19285;SDS011;9776;50.798;6.430;2024-01-27T02:43:53;6.47;;;1.60;;
19285;SDS011;9776;50.798;6.430;2024-01-27T02:46:20;6.35;;;2.00;;
19285;SDS011;9776;50.798;6.430;2024-01-27T02:48:46;7.38;;;1.67;;
19285;SDS011;9776;50.798;6.430;2024-01-27T02:51:13;5.85;;;1.73;;
19285;SDS011;9776;50.798;6.430;2024-01-27T02:53:44;12.68;;;1.73;;
19285;SDS011;9776;50.798;6.430;2024-01-27T02:56:11;7.35;;;1.88;;
19285;SDS011;9776;50.798;6.430;2024-01-27T02:58:40;6.95;;;1.80;;
19285;SDS011;9776;50.798;6.430;2024-01-27T03:01:07;7.93;;;1.70;;
19285;SDS011;9776;50.798;6.430;2024-01-27T03:03:34;13.75;;;1.90;;
19285;SDS011;9776;50.798;6.430;2024-01-27T03:06:00;7.85;;;1.73;;
19285;SDS011;9776;50.798;6.430;2024-01-27T03:08:27;3.75;;;1.45;;
19285;SDS011;9776;50.798;6.430;2024-01-27T03:10:54;13.60;;;2.03;;
19285;SDS011;9776;50.798;6.430;2024-01-27T03:13:20;8.18;;;1.85;;
19285;SDS011;9776;50.798;6.430;2024-01-27T03:15:48;6.95;;;1.42;;
19285;SDS011;9776;50.798;6.430;2024-01-27T03:18:17;6.65;;;2.17;;
19285;SDS011;9776;50.798;6.430;2024-01-27T03:20:44;9.00;;;1.67;;
19285;SDS011;9776;50.798;6.430;2024-01-27T03:23:11;7.63;;;1.65;;
19285;SDS011;9776;50.798;6.430;2024-01-27T03:25:37;6.63;;;1.65;;
19285;SDS011;9776;50.798;6.430;2024-01-27T03:28:04;11.73;;;1.80;;
19285;SDS011;9776;50.798;6.430;2024-01-27T03:30:31;7.47;;;1.52;;
19285;SDS011;9776;50.798;6.430;2024-01-27T03:32:59;8.27;;;1.70;;
19285;SDS011;9776;50.798;6.430;2024-01-27T03:35:25;5.82;;;1.23;;
19285;SDS011;9776;50.798;6.430;2024-01-27T03:37:52;9.32;;;1.58;;
19285;SDS011;9776;50.798;6.430;2024-01-27T03:40:26;4.80;;;1.52;;
19285;SDS011;9776;50.798;6.430;2024-01-27T03:42:53;5.03;;;1.10;;
19285;SDS011;9776;50.798;6.430;2024-01-27T03:45:19;5.30;;;1.33;;
19285;SDS011;9776;50.798;6.430;2024-01-27T03:47:46;4.07;;;1.13;;
19285;SDS011;9776;50.798;6.430;2024-01-27T03:50:14;6.68;;;1.50;;
19285;SDS011;9776;50.798;6.430;2024-01-27T03:52:41;5.43;;;1.80;;
19285;SDS011;9776;50.798;6.430;2024-01-27T03:55:08;7.82;;;1.63;;
19285;SDS011;9776;50.798;6.430;2024-01-27T03:57:35;9.15;;;1.67;;
19285;SDS011;9776;50.798;6.430;2024-01-27T04:00:02;7.07;;;1.52;;
19285;SDS011;9776;50.798;6.430;2024-01-27T04:02:30;4.82;;;1.40;;
19285;SDS011;9776;50.798;6.430;2024-01-27T04:04:56;7.13;;;1.73;;
19285;SDS011;9776;50.798;6.430;2024-01-27T04:07:24;7.35;;;1.55;;
19285;SDS011;9776;50.798;6.430;2024-01-27T04:09:52;7.57;;;1.90;;
19285;SDS011;9776;50.798;6.430;2024-01-27T04:12:18;3.88;;;1.67;;
19285;SDS011;9776;50.798;6.430;2024-01-27T04:14:45;7.32;;;1.98;;
19285;SDS011;9776;50.798;6.430;2024-01-27T04:17:11;3.92;;;1.60;;
19285;SDS011;9776;50.798;6.430;2024-01-27T04:19:38;6.28;;;1.60;;
19285;SDS011;9776;50.798;6.430;2024-01-27T04:22:05;9.80;;;1.75;;
19285;SDS011;9776;50.798;6.430;2024-01-27T04:24:33;8.15;;;1.45;;
19285;SDS011;9776;50.798;6.430;2024-01-27T04:27:00;11.35;;;1.80;;
19285;SDS011;9776;50.798;6.430;2024-01-27T04:29:27;7.38;;;1.48;;
19285;SDS011;9776;50.798;6.430;2024-01-27T04:31:54;7.72;;;1.63;;
19285;SDS011;9776;50.798;6.430;2024-01-27T04:34:21;6.95;;;1.98;;
19285;SDS011;9776;50.798;6.430;2024-01-27T04:36:48;8.48;;;2.08;;
19285;SDS011;9776;50.798;6.430;2024-01-27T04:39:14;7.18;;;1.63;;
19285;SDS011;9776;50.798;6.430;2024-01-27T04:41:43;6.90;;;1.75;;
19285;SDS011;9776;50.798;6.430;2024-01-27T04:44:10;8.82;;;1.67;;
19285;SDS011;9776;50.798;6.430;2024-01-27T04:46:37;6.40;;;1.60;;
19285;SDS011;9776;50.798;6.430;2024-01-27T04:49:03;3.10;;;1.40;;
19285;SDS011;9776;50.798;6.430;2024-01-27T04:51:30;7.45;;;1.98;;
19285;SDS011;9776;50.798;6.430;2024-01-27T04:53:57;7.47;;;1.63;;
19285;SDS011;9776;50.798;6.430;2024-01-27T04:56:23;5.97;;;1.63;;
19285;SDS011;9776;50.798;6.430;2024-01-27T04:58:51;5.57;;;1.60;;
19285;SDS011;9776;50.798;6.430;2024-01-27T05:01:18;6.68;;;2.10;;
19285;SDS011;9776;50.798;6.430;2024-01-27T05:03:46;8.27;;;2.03;;
19285;SDS011;9776;50.798;6.430;2024-01-27T05:06:12;6.05;;;1.90;;
19285;SDS011;9776;50.798;6.430;2024-01-27T05:08:39;9.18;;;2.17;;
19285;SDS011;9776;50.798;6.430;2024-01-27T05:11:06;9.98;;;2.50;;
19285;SDS011;9776;50.798;6.430;2024-01-27T05:13:33;5.85;;;2.00;;
19285;SDS011;9776;50.798;6.430;2024-01-27T05:16:01;8.18;;;2.05;;
19285;SDS011;9776;50.798;6.430;2024-01-27T05:18:28;5.75;;;1.55;;
19285;SDS011;9776;50.798;6.430;2024-01-27T05:20:54;5.70;;;1.83;;
19285;SDS011;9776;50.798;6.430;2024-01-27T05:23:21;8.02;;;1.98;;
19285;SDS011;9776;50.798;6.430;2024-01-27T05:25:48;5.15;;;1.65;;
19285;SDS011;9776;50.798;6.430;2024-01-27T05:28:15;12.18;;;2.35;;
19285;SDS011;9776;50.798;6.430;2024-01-27T05:30:42;7.97;;;1.90;;
19285;SDS011;9776;50.798;6.430;2024-01-27T05:33:11;7.63;;;1.95;;
19285;SDS011;9776;50.798;6.430;2024-01-27T05:35:37;7.80;;;1.77;;
19285;SDS011;9776;50.798;6.430;2024-01-27T05:38:04;8.85;;;1.90;;
19285;SDS011;9776;50.798;6.430;2024-01-27T05:40:31;8.05;;;1.83;;
19285;SDS011;9776;50.798;6.430;2024-01-27T05:42:57;5.80;;;1.95;;
19285;SDS011;9776;50.798;6.430;2024-01-27T05:45:24;8.43;;;2.05;;
19285;SDS011;9776;50.798;6.430;2024-01-27T05:47:51;9.43;;;2.00;;
19285;SDS011;9776;50.798;6.430;2024-01-27T05:50:19;5.88;;;1.38;;
19285;SDS011;9776;50.798;6.430;2024-01-27T05:52:46;6.78;;;1.67;;
19285;SDS011;9776;50.798;6.430;2024-01-27T05:55:13;5.40;;;1.67;;
19285;SDS011;9776;50.798;6.430;2024-01-27T05:57:41;7.20;;;1.60;;
19285;SDS011;9776;50.798;6.430;2024-01-27T06:00:08;6.85;;;1.63;;
19285;SDS011;9776;50.798;6.430;2024-01-27T06:02:35;9.13;;;2.17;;
19285;SDS011;9776;50.798;6.430;2024-01-27T06:05:02;5.88;;;1.88;;
19285;SDS011;9776;50.798;6.430;2024-01-27T06:07:31;6.32;;;1.70;;
19285;SDS011;9776;50.798;6.430;2024-01-27T06:09:57;7.78;;;2.00;;
19285;SDS011;9776;50.798;6.430;2024-01-27T06:12:24;9.95;;;2.63;;
19285;SDS011;9776;50.798;6.430;2024-01-27T06:14:51;9.88;;;2.13;;
19285;SDS011;9776;50.798;6.430;2024-01-27T06:17:17;5.68;;;1.73;;
19285;SDS011;9776;50.798;6.430;2024-01-27T06:19:44;5.85;;;1.70;;
19285;SDS011;9776;50.798;6.430;2024-01-27T06:22:11;7.60;;;1.45;;
19285;SDS011;9776;50.798;6.430;2024-01-27T06:24:42;9.40;;;1.95;;
19285;SDS011;9776;50.798;6.430;2024-01-27T06:27:09;5.53;;;1.67;;
19285;SDS011;9776;50.798;6.430;2024-01-27T06:29:36;5.75;;;1.70;;
19285;SDS011;9776;50.798;6.430;2024-01-27T06:32:03;6.05;;;1.67;;
19285;SDS011;9776;50.798;6.430;2024-01-27T06:34:31;6.65;;;1.80;;
19285;SDS011;9776;50.798;6.430;2024-01-27T06:36:58;6.15;;;1.73;;
19285;SDS011;9776;50.798;6.430;2024-01-27T06:39:24;8.35;;;2.35;;
19285;SDS011;9776;50.798;6.430;2024-01-27T06:41:53;6.60;;;2.13;;
19285;SDS011;9776;50.798;6.430;2024-01-27T06:44:20;10.30;;;2.58;;
19285;SDS011;9776;50.798;6.430;2024-01-27T06:46:46;5.65;;;2.30;;
19285;SDS011;9776;50.798;6.430;2024-01-27T06:49:15;13.73;;;2.38;;
19285;SDS011;9776;50.798;6.430;2024-01-27T06:51:41;7.32;;;1.95;;
19285;SDS011;9776;50.798;6.430;2024-01-27T06:54:09;6.03;;;2.13;;
19285;SDS011;9776;50.798;6.430;2024-01-27T06:56:36;4.85;;;2.10;;
19285;SDS011;9776;50.798;6.430;2024-01-27T06:59:05;11.75;;;2.10;;
19285;SDS011;9776;50.798;6.430;2024-01-27T07:01:31;7.47;;;2.33;;
19285;SDS011;9776;50.798;6.430;2024-01-27T07:03:58;8.80;;;2.00;;
19285;SDS011;9776;50.798;6.430;2024-01-27T07:06:24;6.72;;;2.40;;
19285;SDS011;9776;50.798;6.430;2024-01-27T07:08:51;4.07;;;1.90;;
19285;SDS011;9776;50.798;6.430;2024-01-27T07:11:18;10.70;;;2.20;;
19285;SDS011;9776;50.798;6.430;2024-01-27T07:13:44;6.85;;;2.00;;
19285;SDS011;9776;50.798;6.430;2024-01-27T07:16:13;5.03;;;2.00;;
19285;SDS011;9776;50.798;6.430;2024-01-27T07:18:39;5.13;;;1.77;;
19285;SDS011;9776;50.798;6.430;2024-01-27T07:21:06;3.78;;;1.60;;
19285;SDS011;9776;50.798;6.430;2024-01-27T07:23:33;5.97;;;2.00;;
19285;SDS011;9776;50.798;6.430;2024-01-27T07:26:00;7.05;;;1.77;;
19285;SDS011;9776;50.798;6.430;2024-01-27T07:28:28;4.82;;;2.08;;
19285;SDS011;9776;50.798;6.430;2024-01-27T07:30:55;9.68;;;2.08;;
19285;SDS011;9776;50.798;6.430;2024-01-27T07:33:23;6.80;;;1.73;;
19285;SDS011;9776;50.798;6.430;2024-01-27T07:35:50;7.03;;;1.90;;
19285;SDS011;9776;50.798;6.430;2024-01-27T07:38:17;8.90;;;1.73;;
19285;SDS011;9776;50.798;6.430;2024-01-27T07:40:43;6.32;;;1.65;;
19285;SDS011;9776;50.798;6.430;2024-01-27T07:43:10;8.20;;;2.22;;
19285;SDS011;9776;50.798;6.430;2024-01-27T07:45:37;5.47;;;1.95;;
19285;SDS011;9776;50.798;6.430;2024-01-27T07:48:04;7.68;;;2.45;;
19285;SDS011;9776;50.798;6.430;2024-01-27T07:50:34;6.93;;;2.25;;
19285;SDS011;9776;50.798;6.430;2024-01-27T07:53:00;6.43;;;2.25;;
19285;SDS011;9776;50.798;6.430;2024-01-27T07:55:27;21.90;;;8.10;;
19285;SDS011;9776;50.798;6.430;2024-01-27T07:57:54;12.75;;;3.03;;
19285;SDS011;9776;50.798;6.430;2024-01-27T08:00:20;7.75;;;2.67;;
19285;SDS011;9776;50.798;6.430;2024-01-27T08:02:47;8.32;;;2.55;;
19285;SDS011;9776;50.798;6.430;2024-01-27T08:05:14;8.43;;;2.65;;
19285;SDS011;9776;50.798;6.430;2024-01-27T08:07:42;8.68;;;2.53;;
19285;SDS011;9776;50.798;6.430;2024-01-27T08:10:09;9.10;;;2.75;;
19285;SDS011;9776;50.798;6.430;2024-01-27T08:12:36;9.30;;;2.83;;
19285;SDS011;9776;50.798;6.430;2024-01-27T08:15:03;10.40;;;2.58;;
19285;SDS011;9776;50.798;6.430;2024-01-27T08:17:31;11.77;;;2.60;;
19285;SDS011;9776;50.798;6.430;2024-01-27T08:19:57;8.18;;;2.42;;
19285;SDS011;9776;50.798;6.430;2024-01-27T08:22:24;8.57;;;2.20;;
19285;SDS011;9776;50.798;6.430;2024-01-27T08:24:52;9.95;;;3.90;;
19285;SDS011;9776;50.798;6.430;2024-01-27T08:27:19;16.55;;;5.78;;
19285;SDS011;9776;50.798;6.430;2024-01-27T08:29:46;16.80;;;6.28;;
19285;SDS011;9776;50.798;6.430;2024-01-27T08:32:12;10.00;;;3.25;;
19285;SDS011;9776;50.798;6.430;2024-01-27T08:34:39;9.82;;;3.10;;
19285;SDS011;9776;50.798;6.430;2024-01-27T08:37:13;10.82;;;3.25;;
19285;SDS011;9776;50.798;6.430;2024-01-27T08:39:41;11.02;;;3.85;;
19285;SDS011;9776;50.798;6.430;2024-01-27T08:42:10;11.32;;;3.45;;
19285;SDS011;9776;50.798;6.430;2024-01-27T08:44:37;7.75;;;2.70;;
19285;SDS011;9776;50.798;6.430;2024-01-27T08:47:04;8.68;;;2.65;;
19285;SDS011;9776;50.798;6.430;2024-01-27T08:49:31;10.23;;;3.05;;
19285;SDS011;9776;50.798;6.430;2024-01-27T08:51:57;9.23;;;3.38;;
19285;SDS011;9776;50.798;6.430;2024-01-27T08:54:24;10.05;;;3.15;;
19285;SDS011;9776;50.798;6.430;2024-01-27T08:56:51;7.82;;;3.33;;
19285;SDS011;9776;50.798;6.430;2024-01-27T08:59:19;9.13;;;2.97;;
19285;SDS011;9776;50.798;6.430;2024-01-27T09:01:45;7.18;;;3.03;;
19285;SDS011;9776;50.798;6.430;2024-01-27T09:04:12;10.93;;;3.13;;
19285;SDS011;9776;50.798;6.430;2024-01-27T09:06:39;10.10;;;2.30;;
19285;SDS011;9776;50.798;6.430;2024-01-27T09:09:05;7.70;;;2.45;;
19285;SDS011;9776;50.798;6.430;2024-01-27T09:11:33;10.43;;;2.60;;
19285;SDS011;9776;50.798;6.430;2024-01-27T09:14:00;9.85;;;2.30;;
19285;SDS011;9776;50.798;6.430;2024-01-27T09:16:28;6.25;;;2.08;;
19285;SDS011;9776;50.798;6.430;2024-01-27T09:18:54;10.65;;;2.10;;
19285;SDS011;9776;50.798;6.430;2024-01-27T09:21:21;10.82;;;2.28;;
19285;SDS011;9776;50.798;6.430;2024-01-27T09:23:53;4.80;;;2.00;;
19285;SDS011;9776;50.798;6.430;2024-01-27T09:26:19;6.28;;;1.95;;
19285;SDS011;9776;50.798;6.430;2024-01-27T09:28:48;9.20;;;2.05;;
19285;SDS011;9776;50.798;6.430;2024-01-27T09:31:19;8.48;;;2.22;;
19285;SDS011;9776;50.798;6.430;2024-01-27T09:33:48;6.03;;;2.00;;
19285;SDS011;9776;50.798;6.430;2024-01-27T09:36:16;8.25;;;2.10;;
19285;SDS011;9776;50.798;6.430;2024-01-27T09:38:43;8.77;;;2.30;;
19285;SDS011;9776;50.798;6.430;2024-01-27T09:41:10;8.25;;;2.63;;
19285;SDS011;9776;50.798;6.430;2024-01-27T09:43:39;10.43;;;2.20;;
19285;SDS011;9776;50.798;6.430;2024-01-27T09:46:08;6.88;;;2.17;;
19285;SDS011;9776;50.798;6.430;2024-01-27T09:48:35;11.82;;;2.90;;
19285;SDS011;9776;50.798;6.430;2024-01-27T09:51:03;5.05;;;2.17;;
19285;SDS011;9776;50.798;6.430;2024-01-27T09:53:31;5.43;;;2.00;;
19285;SDS011;9776;50.798;6.430;2024-01-27T09:55:58;5.97;;;2.42;;
19285;SDS011;9776;50.798;6.430;2024-01-27T09:58:26;8.75;;;2.05;;
19285;SDS011;9776;50.798;6.430;2024-01-27T10:00:54;7.60;;;2.17;;
19285;SDS011;9776;50.798;6.430;2024-01-27T10:03:24;10.98;;;2.65;;
19285;SDS011;9776;50.798;6.430;2024-01-27T10:05:51;5.03;;;2.00;;
19285;SDS011;9776;50.798;6.430;2024-01-27T10:08:21;8.10;;;2.00;;
19285;SDS011;9776;50.798;6.430;2024-01-27T10:10:49;6.75;;;2.08;;
19285;SDS011;9776;50.798;6.430;2024-01-27T10:13:20;7.25;;;2.22;;
19285;SDS011;9776;50.798;6.430;2024-01-27T10:15:58;6.63;;;2.10;;
19285;SDS011;9776;50.798;6.430;2024-01-27T10:18:25;10.75;;;2.30;;
19285;SDS011;9776;50.798;6.430;2024-01-27T10:20:52;10.02;;;2.42;;
19285;SDS011;9776;50.798;6.430;2024-01-27T10:23:20;6.53;;;1.95;;
19285;SDS011;9776;50.798;6.430;2024-01-27T10:25:47;8.65;;;2.22;;
19285;SDS011;9776;50.798;6.430;2024-01-27T10:28:14;4.57;;;2.05;;
19285;SDS011;9776;50.798;6.430;2024-01-27T10:30:40;13.23;;;2.08;;
19285;SDS011;9776;50.798;6.430;2024-01-27T10:33:08;8.45;;;2.42;;
19285;SDS011;9776;50.798;6.430;2024-01-27T10:35:35;8.65;;;2.35;;
19285;SDS011;9776;50.798;6.430;2024-01-27T10:38:02;12.40;;;2.38;;
19285;SDS011;9776;50.798;6.430;2024-01-27T10:40:30;5.90;;;2.03;;
19285;SDS011;9776;50.798;6.430;2024-01-27T10:43:00;9.07;;;2.20;;
19285;SDS011;9776;50.798;6.430;2024-01-27T10:45:29;9.85;;;2.22;;
19285;SDS011;9776;50.798;6.430;2024-01-27T10:48:01;6.22;;;2.15;;
19285;SDS011;9776;50.798;6.430;2024-01-27T10:50:29;8.10;;;2.63;;
19285;SDS011;9776;50.798;6.430;2024-01-27T10:52:57;4.63;;;2.25;;
19285;SDS011;9776;50.798;6.430;2024-01-27T10:55:24;6.47;;;1.98;;
19285;SDS011;9776;50.798;6.430;2024-01-27T10:57:53;7.97;;;2.10;;
19285;SDS011;9776;50.798;6.430;2024-01-27T11:00:22;4.45;;;1.70;;
19285;SDS011;9776;50.798;6.430;2024-01-27T11:02:51;4.68;;;1.60;;
19285;SDS011;9776;50.798;6.430;2024-01-27T11:05:20;6.18;;;2.38;;
19285;SDS011;9776;50.798;6.430;2024-01-27T11:07:50;4.72;;;1.67;;
19285;SDS011;9776;50.798;6.430;2024-01-27T11:10:17;7.38;;;1.90;;
19285;SDS011;9776;50.798;6.430;2024-01-27T11:12:44;5.45;;;1.50;;
19285;SDS011;9776;50.798;6.430;2024-01-27T11:15:14;3.10;;;1.48;;
19285;SDS011;9776;50.798;6.430;2024-01-27T11:17:41;4.40;;;1.30;;
19285;SDS011;9776;50.798;6.430;2024-01-27T11:20:10;5.03;;;1.20;;
19285;SDS011;9776;50.798;6.430;2024-01-27T11:22:38;5.00;;;1.08;;
19285;SDS011;9776;50.798;6.430;2024-01-27T11:25:09;5.45;;;1.42;;
19285;SDS011;9776;50.798;6.430;2024-01-27T11:27:42;4.75;;;1.48;;
19285;SDS011;9776;50.798;6.430;2024-01-27T11:30:25;8.07;;;3.28;;
19285;SDS011;9776;50.798;6.430;2024-01-27T11:32:53;3.83;;;1.55;;
19285;SDS011;9776;50.798;6.430;2024-01-27T11:35:21;6.07;;;1.27;;
19285;SDS011;9776;50.798;6.430;2024-01-27T11:37:47;4.32;;;1.20;;
19285;SDS011;9776;50.798;6.430;2024-01-27T11:40:14;5.22;;;1.40;;
19285;SDS011;9776;50.798;6.430;2024-01-27T11:42:41;2.15;;;1.00;;
19285;SDS011;9776;50.798;6.430;2024-01-27T11:45:08;6.97;;;1.17;;
19285;SDS011;9776;50.798;6.430;2024-01-27T11:47:36;5.20;;;1.05;;
19285;SDS011;9776;50.798;6.430;2024-01-27T11:50:03;4.72;;;1.63;;
19285;SDS011;9776;50.798;6.430;2024-01-27T11:52:30;6.28;;;1.13;;
19285;SDS011;9776;50.798;6.430;2024-01-27T11:54:57;4.68;;;1.27;;
19285;SDS011;9776;50.798;6.430;2024-01-27T11:57:25;3.55;;;1.17;;
19285;SDS011;9776;50.798;6.430;2024-01-27T11:59:52;7.93;;;1.15;;
19285;SDS011;9776;50.798;6.430;2024-01-27T12:02:20;4.03;;;1.17;;
19285;SDS011;9776;50.798;6.430;2024-01-27T12:04:48;4.72;;;1.02;;
19285;SDS011;9776;50.798;6.430;2024-01-27T12:07:16;4.00;;;1.00;;
19285;SDS011;9776;50.798;6.430;2024-01-27T12:09:43;4.43;;;1.00;;
19285;SDS011;9776;50.798;6.430;2024-01-27T12:12:10;8.02;;;1.30;;
19285;SDS011;9776;50.798;6.430;2024-01-27T12:14:39;7.07;;;1.48;;
19285;SDS011;9776;50.798;6.430;2024-01-27T12:17:08;6.85;;;2.00;;
19285;SDS011;9776;50.798;6.430;2024-01-27T12:19:36;5.10;;;1.20;;
19285;SDS011;9776;50.798;6.430;2024-01-27T12:22:05;5.22;;;1.30;;
19285;SDS011;9776;50.798;6.430;2024-01-27T12:24:48;4.72;;;1.40;;
19285;SDS011;9776;50.798;6.430;2024-01-27T12:27:15;7.40;;;1.50;;
19285;SDS011;9776;50.798;6.430;2024-01-27T12:29:43;4.97;;;1.75;;
19285;SDS011;9776;50.798;6.430;2024-01-27T12:32:09;3.28;;;1.25;;
19285;SDS011;9776;50.798;6.430;2024-01-27T12:34:39;5.93;;;1.10;;
19285;SDS011;9776;50.798;6.430;2024-01-27T12:37:08;3.92;;;1.23;;
19285;SDS011;9776;50.798;6.430;2024-01-27T12:39:37;3.63;;;1.08;;
19285;SDS011;9776;50.798;6.430;2024-01-27T12:42:04;5.90;;;1.33;;
19285;SDS011;9776;50.798;6.430;2024-01-27T12:44:31;5.50;;;1.00;;
19285;SDS011;9776;50.798;6.430;2024-01-27T12:46:58;4.35;;;1.10;;
19285;SDS011;9776;50.798;6.430;2024-01-27T12:49:25;4.00;;;1.20;;
19285;SDS011;9776;50.798;6.430;2024-01-27T12:51:52;4.68;;;0.95;;
19285;SDS011;9776;50.798;6.430;2024-01-27T12:54:20;4.80;;;1.33;;
19285;SDS011;9776;50.798;6.430;2024-01-27T12:56:47;6.15;;;1.10;;
19285;SDS011;9776;50.798;6.430;2024-01-27T12:59:14;3.33;;;1.40;;
19285;SDS011;9776;50.798;6.430;2024-01-27T13:01:42;3.88;;;0.80;;
19285;SDS011;9776;50.798;6.430;2024-01-27T13:04:09;4.90;;;1.10;;
19285;SDS011;9776;50.798;6.430;2024-01-27T13:06:35;3.53;;;0.90;;
19285;SDS011;9776;50.798;6.430;2024-01-27T13:09:03;5.53;;;1.10;;
19285;SDS011;9776;50.798;6.430;2024-01-27T13:11:32;5.35;;;0.90;;
19285;SDS011;9776;50.798;6.430;2024-01-27T13:13:59;4.45;;;1.10;;
19285;SDS011;9776;50.798;6.430;2024-01-27T13:16:25;2.78;;;0.90;;
19285;SDS011;9776;50.798;6.430;2024-01-27T13:18:52;4.75;;;1.05;;
19285;SDS011;9776;50.798;6.430;2024-01-27T13:21:18;3.75;;;1.00;;
19285;SDS011;9776;50.798;6.430;2024-01-27T13:23:45;4.38;;;1.10;;
19285;SDS011;9776;50.798;6.430;2024-01-27T13:26:12;3.47;;;0.88;;
19285;SDS011;9776;50.798;6.430;2024-01-27T13:28:40;4.90;;;1.10;;
19285;SDS011;9776;50.798;6.430;2024-01-27T13:31:07;3.35;;;0.93;;
19285;SDS011;9776;50.798;6.430;2024-01-27T13:33:33;6.43;;;1.00;;
19285;SDS011;9776;50.798;6.430;2024-01-27T13:36:00;4.32;;;1.45;;
19285;SDS011;9776;50.798;6.430;2024-01-27T13:38:27;2.90;;;1.10;;
19285;SDS011;9776;50.798;6.430;2024-01-27T13:40:54;6.15;;;1.50;;
19285;SDS011;9776;50.798;6.430;2024-01-27T13:43:21;3.17;;;1.70;;
19285;SDS011;9776;50.798;6.430;2024-01-27T13:45:49;4.00;;;1.35;;
19285;SDS011;9776;50.798;6.430;2024-01-27T13:48:16;4.32;;;1.13;;
19285;SDS011;9776;50.798;6.430;2024-01-27T13:50:43;4.47;;;1.85;;
19285;SDS011;9776;50.798;6.430;2024-01-27T13:53:10;3.35;;;1.05;;
19285;SDS011;9776;50.798;6.430;2024-01-27T13:55:37;5.25;;;1.30;;
19285;SDS011;9776;50.798;6.430;2024-01-27T13:58:05;3.97;;;1.20;;
19285;SDS011;9776;50.798;6.430;2024-01-27T14:00:32;6.07;;;3.47;;
19285;SDS011;9776;50.798;6.430;2024-01-27T14:03:01;26.80;;;18.65;;
19285;SDS011;9776;50.798;6.430;2024-01-27T14:05:27;40.33;;;27.73;;
19285;SDS011;9776;50.798;6.430;2024-01-27T14:07:54;13.65;;;8.65;;
19285;SDS011;9776;50.798;6.430;2024-01-27T14:10:21;3.15;;;1.30;;
19285;SDS011;9776;50.798;6.430;2024-01-27T14:12:49;4.38;;;1.10;;
19285;SDS011;9776;50.798;6.430;2024-01-27T14:15:17;3.00;;;0.90;;
19285;SDS011;9776;50.798;6.430;2024-01-27T14:17:43;4.18;;;1.15;;
19285;SDS011;9776;50.798;6.430;2024-01-27T14:20:12;3.05;;;1.02;;
19285;SDS011;9776;50.798;6.430;2024-01-27T14:22:38;3.97;;;1.45;;
19285;SDS011;9776;50.798;6.430;2024-01-27T14:25:05;5.32;;;1.17;;
19285;SDS011;9776;50.798;6.430;2024-01-27T14:27:33;6.05;;;1.17;;
19285;SDS011;9776;50.798;6.430;2024-01-27T14:30:00;4.60;;;1.20;;
19285;SDS011;9776;50.798;6.430;2024-01-27T14:32:27;7.63;;;1.70;;
19285;SDS011;9776;50.798;6.430;2024-01-27T14:34:53;5.97;;;1.40;;
19285;SDS011;9776;50.798;6.430;2024-01-27T14:37:21;7.30;;;1.48;;
19285;SDS011;9776;50.798;6.430;2024-01-27T14:39:48;5.20;;;1.17;;
19285;SDS011;9776;50.798;6.430;2024-01-27T14:42:15;5.82;;;1.20;;
19285;SDS011;9776;50.798;6.430;2024-01-27T14:44:43;6.60;;;1.25;;
19285;SDS011;9776;50.798;6.430;2024-01-27T14:47:10;6.40;;;1.63;;
19285;SDS011;9776;50.798;6.430;2024-01-27T14:49:37;6.05;;;1.63;;
19285;SDS011;9776;50.798;6.430;2024-01-27T14:52:04;4.75;;;2.00;;
19285;SDS011;9776;50.798;6.430;2024-01-27T14:54:33;8.63;;;2.65;;
19285;SDS011;9776;50.798;6.430;2024-01-27T14:57:01;9.50;;;3.15;;
19285;SDS011;9776;50.798;6.430;2024-01-27T14:59:29;7.88;;;2.65;;
19285;SDS011;9776;50.798;6.430;2024-01-27T15:01:56;9.38;;;2.65;;